Time;durP1;ratioP1;P1;durP2;ratioP2;P2;SDS_P1;SDS_P2;PMS_P1;PMS_P2;Temp;Humidity;BMP_temperature;BMP_pressure;BME280_temperature;BME280_humidity;BME280_pressure;Samples;Min_cycle;Max_cycle;Signal;HPM_P1;HPM_P2
2023/01/29 00:01:48;;;;;;;;;;;0.80;97.00;;;;;;5002448;28;19979;-69
2023/01/29 00:04:14;;;;;;;;;;;0.80;97.00;;;;;;5001911;28;19914;-69
2023/01/29 00:06:39;;;;;;;;;;;0.80;97.00;;;;;;5004783;28;19920;-69
2023/01/29 00:09:05;;;;;;;;;;;0.80;97.00;;;;;;4999335;28;20524;-69
2023/01/29 00:11:30;;;;;;;;;;;0.70;97.00;;;;;;4989197;28;19959;-68
2023/01/29 00:13:56;;;;;;;;;;;0.70;97.00;;;;;;4988484;28;19983;-69
2023/01/29 00:16:22;;;;;;;;;;;0.70;97.00;;;;;;4988337;28;19922;-68
2023/01/29 00:18:47;;;;;;;;;;;0.70;97.00;;;;;;5007368;28;19917;-68
2023/01/29 00:21:14;;;;;;;;;;;0.70;97.00;;;;;;5006555;28;19909;-68
2023/01/29 00:23:40;;;;;;;;;;;0.70;97.00;;;;;;5008222;28;19914;-69
2023/01/29 00:26:05;;;;;;;;;;;0.70;97.00;;;;;;5006788;28;19982;-69
2023/01/29 00:28:31;;;;;;;;;;;0.70;97.00;;;;;;5007775;28;20354;-69
2023/01/29 00:30:56;;;;;;;;;;;0.70;97.00;;;;;;5008028;28;19909;-69
2023/01/29 00:33:22;;;;;;;;;;;0.70;97.00;;;;;;5008320;28;19913;-69
2023/01/29 00:35:47;;;;;;;;;;;0.70;97.00;;;;;;5007531;28;19918;-69
2023/01/29 00:38:13;;;;;;;;;;;0.70;97.00;;;;;;5007662;28;20008;-69
2023/01/29 00:46:07;;;;;;;;;;;0.60;96.90;;;;;;5007740;28;19918;-69
2023/01/29 00:48:33;;;;;;;;;;;0.70;97.00;;;;;;5008009;28;19914;-69
2023/01/29 00:50:59;;;;;;;;;;;0.70;97.00;;;;;;5007274;28;20006;-68
2023/01/29 00:53:24;;;;;;;;;;;0.60;97.00;;;;;;5007457;28;19940;-68
2023/01/29 00:55:50;;;;;;;;;;;0.70;97.00;;;;;;5007409;28;19917;-69
2023/01/29 00:58:21;;;;;;;;;;;0.60;97.00;;;;;;5007565;28;20004;-68
2023/01/29 01:00:50;;;;;;;;;;;0.60;96.90;;;;;;5007166;28;19909;-69
2023/01/29 01:03:16;;;;;;;;;;;0.60;96.90;;;;;;5007987;28;19937;-69
2023/01/29 01:05:41;;;;;;;;;;;0.60;96.90;;;;;;5007755;28;20479;-69
2023/01/29 01:10:19;;;;;;;;;;;0.60;96.90;;;;;;5007084;28;19944;-69
2023/01/29 01:11:05;;;;;;;;;;;0.60;96.90;;;;;;5007172;28;20602;-68
2023/01/29 01:13:31;;;;;;;;;;;0.60;97.00;;;;;;5007333;28;19913;-68
2023/01/29 01:15:57;;;;;;;;;;;0.60;96.90;;;;;;5005998;28;19918;-68
2023/01/29 01:18:22;;;;;;;;;;;0.60;96.90;;;;;;5007219;28;19936;-69
2023/01/29 01:20:51;;;;;;;;;;;0.60;96.90;;;;;;5007094;28;19951;-69
2023/01/29 01:23:18;;;;;;;;;;;0.60;96.90;;;;;;5005775;28;19909;-68
2023/01/29 01:25:43;;;;;;;;;;;0.50;96.90;;;;;;5006832;28;19914;-69
2023/01/29 01:28:09;;;;;;;;;;;0.60;96.90;;;;;;5006695;28;19937;-69
2023/01/29 01:30:35;;;;;;;;;;;0.50;96.90;;;;;;5005985;28;19913;-68
2023/01/29 01:33:00;;;;;;;;;;;0.50;96.90;;;;;;5006406;28;20000;-69
2023/01/29 01:35:26;;;;;;;;;;;0.50;96.90;;;;;;5006095;28;19920;-69
2023/01/29 01:37:51;;;;;;;;;;;0.50;96.90;;;;;;5006316;28;19910;-69
2023/01/29 01:40:18;;;;;;;;;;;0.50;96.90;;;;;;5006756;28;20533;-69
2023/01/29 01:42:46;;;;;;;;;;;0.50;97.00;;;;;;5002577;28;19917;-69
2023/01/29 01:45:24;;;;;;;;;;;0.50;96.90;;;;;;5006681;28;19967;-68
2023/01/29 01:47:51;;;;;;;;;;;0.50;96.90;;;;;;5006724;28;20012;-68
2023/01/29 01:50:17;;;;;;;;;;;0.50;96.90;;;;;;5006880;28;19913;-69
2023/01/29 01:52:46;;;;;;;;;;;0.50;96.90;;;;;;5007034;28;19940;-68
2023/01/29 01:55:13;;;;;;;;;;;0.50;96.90;;;;;;5006822;28;19921;-68
2023/01/29 01:57:40;;;;;;;;;;;0.50;96.90;;;;;;5003820;28;19920;-69
2023/01/29 02:00:11;;;;;;;;;;;0.50;96.90;;;;;;5006521;28;20271;-69
2023/01/29 02:10:53;;;;;;;;;;;0.50;96.90;;;;;;5006774;28;20472;-68
2023/01/29 02:13:19;;;;;;;;;;;0.40;96.80;;;;;;5006633;28;19914;-69
2023/01/29 02:15:47;;;;;;;;;;;0.40;96.80;;;;;;5005776;28;19929;-69
2023/01/29 02:18:16;;;;;;;;;;;0.40;96.80;;;;;;5005950;28;19917;-69
2023/01/29 02:20:58;;;;;;;;;;;0.40;96.80;;;;;;5006324;28;20539;-69
2023/01/29 02:23:43;;;;;;;;;;;0.40;96.80;;;;;;5006761;28;19920;-69
2023/01/29 02:26:09;;;;;;;;;;;0.40;96.80;;;;;;5005150;28;20444;-68
2023/01/29 02:28:37;;;;;;;;;;;0.40;96.70;;;;;;5008490;28;19913;-69
2023/01/29 02:31:08;;;;;;;;;;;0.40;96.80;;;;;;5010211;28;20367;-69
2023/01/29 02:33:52;;;;;;;;;;;0.40;96.80;;;;;;5015891;28;20386;-69
2023/01/29 02:36:32;;;;;;;;;;;0.40;96.80;;;;;;5010801;28;19931;-69
2023/01/29 02:39:07;;;;;;;;;;;0.40;96.80;;;;;;5009977;28;19960;-69
2023/01/29 02:41:38;;;;;;;;;;;0.40;96.80;;;;;;5005922;28;19969;-68
2023/01/29 02:44:10;;;;;;;;;;;0.40;96.80;;;;;;5009698;28;19914;-68
2023/01/29 02:46:35;;;;;;;;;;;0.40;96.80;;;;;;5010472;28;20575;-68
2023/01/29 02:49:14;;;;;;;;;;;0.40;96.80;;;;;;5010133;28;20008;-68
2023/01/29 02:51:48;;;;;;;;;;;0.30;96.70;;;;;;5009970;28;20379;-69
2023/01/29 02:54:22;;;;;;;;;;;0.30;96.70;;;;;;5010045;28;19917;-69
2023/01/29 02:56:51;;;;;;;;;;;0.30;96.70;;;;;;5009946;28;19914;-68
2023/01/29 02:59:32;;;;;;;;;;;0.30;96.70;;;;;;5009696;28;20032;-68
2023/01/29 03:02:02;;;;;;;;;;;0.30;96.70;;;;;;5009767;28;19914;-69
2023/01/29 03:04:32;;;;;;;;;;;0.30;96.70;;;;;;5010030;28;20720;-69
2023/01/29 03:07:02;;;;;;;;;;;0.30;96.70;;;;;;5009876;28;19944;-69
2023/01/29 03:09:31;;;;;;;;;;;0.30;96.70;;;;;;5009909;28;19960;-68
2023/01/29 03:12:01;;;;;;;;;;;0.30;96.70;;;;;;5008455;28;20410;-69
2023/01/29 03:15:10;;;;;;;;;;;0.30;96.70;;;;;;5009478;28;19996;-68
2023/01/29 03:17:20;;;;;;;;;;;0.30;96.70;;;;;;5009571;28;19917;-68
2023/01/29 03:19:47;;;;;;;;;;;0.30;96.70;;;;;;5008019;28;19925;-68
2023/01/29 03:22:15;;;;;;;;;;;0.30;96.70;;;;;;5009839;28;19913;-69
2023/01/29 03:33:19;;;;;;;;;;;0.20;96.70;;;;;;5009017;28;19917;-68
2023/01/29 03:36:11;;;;;;;;;;;0.30;96.70;;;;;;5009191;28;20387;-68
2023/01/29 03:38:36;;;;;;;;;;;0.20;96.80;;;;;;5004932;28;20039;-68
2023/01/29 03:41:10;;;;;;;;;;;0.20;96.70;;;;;;5006365;28;19940;-68
2023/01/29 03:43:46;;;;;;;;;;;0.20;96.70;;;;;;5008336;28;19914;-69
2023/01/29 03:46:28;;;;;;;;;;;0.20;96.70;;;;;;4991668;28;20289;-69
2023/01/29 03:48:57;;;;;;;;;;;0.20;96.70;;;;;;5008947;28;20274;-68
2023/01/29 03:51:33;;;;;;;;;;;0.20;96.70;;;;;;5006657;28;20286;-69
2023/01/29 03:54:11;;;;;;;;;;;0.30;96.70;;;;;;5008614;28;20080;-68
2023/01/29 03:56:55;;;;;;;;;;;0.20;96.70;;;;;;4988998;28;20363;-68
2023/01/29 03:59:23;;;;;;;;;;;0.20;96.70;;;;;;4987979;28;19952;-68
2023/01/29 04:01:54;;;;;;;;;;;0.20;96.70;;;;;;4976889;28;19920;-68
2023/01/29 04:04:23;;;;;;;;;;;0.20;96.70;;;;;;5008904;28;19944;-68
2023/01/29 04:06:49;;;;;;;;;;;0.20;96.70;;;;;;5008969;28;20587;-69
2023/01/29 04:09:15;;;;;;;;;;;0.20;96.70;;;;;;5008772;28;19921;-68
2023/01/29 04:11:44;;;;;;;;;;;0.20;96.70;;;;;;5008599;28;20329;-69
2023/01/29 04:14:10;;;;;;;;;;;0.20;96.70;;;;;;5008576;28;19948;-69
2023/01/29 04:16:37;;;;;;;;;;;0.20;96.70;;;;;;4990866;28;20020;-68
2023/01/29 04:19:04;;;;;;;;;;;0.20;96.60;;;;;;5008548;28;19941;-68
2023/01/29 04:21:33;;;;;;;;;;;0.20;96.70;;;;;;5008469;28;19921;-68
2023/01/29 04:23:58;;;;;;;;;;;0.20;96.60;;;;;;5008305;28;19936;-69
2023/01/29 04:26:24;;;;;;;;;;;0.20;96.60;;;;;;5008433;28;20359;-68
2023/01/29 04:28:58;;;;;;;;;;;0.20;96.60;;;;;;5008197;28;19913;-68
2023/01/29 04:31:27;;;;;;;;;;;0.20;96.70;;;;;;5008318;28;19993;-68
2023/01/29 04:34:02;;;;;;;;;;;0.20;96.70;;;;;;5008173;28;20004;-68
2023/01/29 04:36:44;;;;;;;;;;;0.20;96.70;;;;;;5008573;28;19916;-69
2023/01/29 04:39:28;;;;;;;;;;;0.20;96.70;;;;;;5007870;28;19918;-68
2023/01/29 04:42:03;;;;;;;;;;;0.20;96.60;;;;;;5007779;28;20024;-68
2023/01/29 04:44:51;;;;;;;;;;;0.20;96.70;;;;;;5007546;28;20278;-68
2023/01/29 04:47:35;;;;;;;;;;;0.20;96.60;;;;;;5007713;28;19909;-69
2023/01/29 04:50:16;;;;;;;;;;;0.20;96.60;;;;;;4988126;28;19924;-68
2023/01/29 04:52:41;;;;;;;;;;;0.20;96.60;;;;;;4988677;28;19918;-68
2023/01/29 04:55:16;;;;;;;;;;;0.30;96.70;;;;;;4996234;28;20726;-68
2023/01/29 04:57:47;;;;;;;;;;;0.20;96.70;;;;;;5007842;28;19979;-68
2023/01/29 05:00:17;;;;;;;;;;;0.20;96.70;;;;;;5006208;28;19921;-68
2023/01/29 05:02:43;;;;;;;;;;;0.30;96.70;;;;;;5007123;28;19913;-69
2023/01/29 05:05:09;;;;;;;;;;;0.30;96.70;;;;;;5007706;28;19960;-68
2023/01/29 05:07:37;;;;;;;;;;;0.30;96.70;;;;;;5007761;28;19920;-68
2023/01/29 05:10:07;;;;;;;;;;;0.30;96.70;;;;;;5007479;28;19917;-68
2023/01/29 05:12:33;;;;;;;;;;;0.30;96.70;;;;;;5007656;28;19948;-68
2023/01/29 05:15:00;;;;;;;;;;;0.30;96.70;;;;;;5007403;28;19913;-69
2023/01/29 05:17:26;;;;;;;;;;;0.30;96.70;;;;;;5007476;28;19927;-68
2023/01/29 05:19:53;;;;;;;;;;;0.30;96.70;;;;;;5006255;28;20465;-68
2023/01/29 05:22:21;;;;;;;;;;;0.30;96.70;;;;;;5007014;28;19914;-68
2023/01/29 05:24:47;;;;;;;;;;;0.30;96.70;;;;;;5005313;28;19917;-68
2023/01/29 05:30:17;;;;;;;;;;;0.30;96.70;;;;;;5005322;28;19916;-68
2023/01/29 05:32:43;;;;;;;;;;;0.40;96.70;;;;;;5007006;28;20003;-68
2023/01/29 05:35:08;;;;;;;;;;;0.40;96.80;;;;;;4989843;28;19936;-68
2023/01/29 05:37:34;;;;;;;;;;;0.30;96.80;;;;;;5005831;28;19913;-69
2023/01/29 05:39:59;;;;;;;;;;;0.30;96.80;;;;;;5006938;28;19921;-68
2023/01/29 05:42:25;;;;;;;;;;;0.40;96.80;;;;;;5006707;28;20350;-69
2023/01/29 05:44:50;;;;;;;;;;;0.40;96.80;;;;;;5007168;28;19917;-68
2023/01/29 05:47:19;;;;;;;;;;;0.40;96.90;;;;;;5003553;28;20609;-68
2023/01/29 05:49:44;;;;;;;;;;;0.40;96.90;;;;;;4986931;28;19960;-68
2023/01/29 05:52:10;;;;;;;;;;;0.40;96.90;;;;;;4987103;28;20573;-68
2023/01/29 05:54:35;;;;;;;;;;;0.40;96.80;;;;;;4972950;28;19916;-68
2023/01/29 05:57:01;;;;;;;;;;;0.40;96.90;;;;;;5006422;28;19920;-68
2023/01/29 05:59:26;;;;;;;;;;;0.40;97.20;;;;;;5006715;28;19949;-68
2023/01/29 06:01:52;;;;;;;;;;;0.40;96.90;;;;;;5007706;28;19945;-68
2023/01/29 06:04:17;;;;;;;;;;;0.40;96.90;;;;;;5011003;28;20042;-68
2023/01/29 06:06:43;;;;;;;;;;;0.40;96.90;;;;;;5011350;28;20286;-68
2023/01/29 06:09:09;;;;;;;;;;;0.40;96.90;;;;;;5011024;28;19917;-68
2023/01/29 06:11:35;;;;;;;;;;;0.50;97.00;;;;;;5011240;28;19920;-68
2023/01/29 06:14:00;;;;;;;;;;;0.50;97.00;;;;;;5010747;28;19940;-68
2023/01/29 06:16:26;;;;;;;;;;;0.40;97.00;;;;;;5011130;28;20502;-68
2023/01/29 06:18:51;;;;;;;;;;;0.40;97.00;;;;;;5011075;28;19914;-68
2023/01/29 06:21:17;;;;;;;;;;;0.50;97.00;;;;;;5010805;28;19967;-68
2023/01/29 06:23:42;;;;;;;;;;;0.40;97.00;;;;;;5011032;28;19988;-68
2023/01/29 06:26:10;;;;;;;;;;;0.50;97.00;;;;;;5009340;28;19910;-68
2023/01/29 06:28:36;;;;;;;;;;;0.40;97.00;;;;;;5010612;28;19921;-69
2023/01/29 06:31:02;;;;;;;;;;;0.50;97.10;;;;;;5009950;28;19918;-68
2023/01/29 06:33:27;;;;;;;;;;;0.50;97.00;;;;;;5010671;28;19963;-68
2023/01/29 06:35:56;;;;;;;;;;;0.50;97.10;;;;;;5010541;28;19914;-68
2023/01/29 06:38:22;;;;;;;;;;;0.50;97.10;;;;;;5010454;28;20032;-68
2023/01/29 06:40:48;;;;;;;;;;;0.50;97.10;;;;;;5009266;28;19921;-68
2023/01/29 06:43:13;;;;;;;;;;;0.50;97.10;;;;;;5006717;28;19923;-68
2023/01/29 06:45:44;;;;;;;;;;;0.50;97.20;;;;;;5010377;28;20510;-68
2023/01/29 06:48:10;;;;;;;;;;;0.50;97.10;;;;;;5010177;28;19964;-68
2023/01/29 06:50:35;;;;;;;;;;;0.50;97.10;;;;;;5010160;28;19913;-68
2023/01/29 06:53:01;;;;;;;;;;;0.50;97.10;;;;;;5010191;28;20004;-68
2023/01/29 06:55:26;;;;;;;;;;;0.50;97.20;;;;;;5006706;28;19914;-68
2023/01/29 06:57:52;;;;;;;;;;;0.50;97.20;;;;;;5013600;28;19917;-68
2023/01/29 07:00:17;;;;;;;;;;;0.50;97.20;;;;;;4999793;28;19957;-68
2023/01/29 07:02:43;;;;;;;;;;;0.50;97.20;;;;;;5000500;28;19959;-68
2023/01/29 07:05:08;;;;;;;;;;;0.50;97.20;;;;;;5014732;28;20008;-68
2023/01/29 07:07:34;;;;;;;;;;;0.50;97.20;;;;;;5000634;28;19918;-68
2023/01/29 07:10:00;;;;;;;;;;;0.50;97.20;;;;;;4996800;28;19992;-68
2023/01/29 07:12:25;;;;;;;;;;;0.50;97.20;;;;;;4999748;28;20703;-68
2023/01/29 07:14:51;;;;;;;;;;;0.60;97.30;;;;;;5007399;28;19926;-68
2023/01/29 07:17:16;;;;;;;;;;;0.60;97.30;;;;;;5009911;28;19921;-68
2023/01/29 07:19:42;;;;;;;;;;;0.60;97.30;;;;;;5009221;28;19971;-68
2023/01/29 07:22:07;;;;;;;;;;;0.50;97.20;;;;;;5008325;28;19920;-68
2023/01/29 07:24:33;;;;;;;;;;;0.50;97.30;;;;;;5007727;28;19913;-68
2023/01/29 07:26:58;;;;;;;;;;;0.60;97.30;;;;;;4999834;28;19945;-69
2023/01/29 07:29:23;;;;;;;;;;;0.50;97.30;;;;;;4997600;28;20430;-68
2023/01/29 07:31:49;;;;;;;;;;;0.60;97.40;;;;;;4998838;28;19968;-68
2023/01/29 07:34:14;;;;;;;;;;;0.60;97.40;;;;;;5000222;28;19945;-68
2023/01/29 07:36:40;;;;;;;;;;;0.60;97.40;;;;;;5014812;28;19918;-68
2023/01/29 07:39:05;;;;;;;;;;;0.60;97.40;;;;;;4994204;28;19922;-68
2023/01/29 07:41:31;;;;;;;;;;;0.60;97.40;;;;;;4997173;28;19917;-68
2023/01/29 07:43:56;;;;;;;;;;;0.60;97.40;;;;;;5005390;28;20302;-68
2023/01/29 07:46:22;;;;;;;;;;;0.60;97.40;;;;;;5001742;28;19922;-68
2023/01/29 07:48:47;;;;;;;;;;;0.60;97.40;;;;;;5006857;28;20492;-68
2023/01/29 07:51:13;;;;;;;;;;;0.60;97.40;;;;;;5009156;28;19941;-69
2023/01/29 07:53:39;;;;;;;;;;;0.60;97.50;;;;;;5008745;28;19913;-68
2023/01/29 07:56:04;;;;;;;;;;;0.60;97.50;;;;;;5008686;28;19917;-68
2023/01/29 07:58:30;;;;;;;;;;;0.60;97.50;;;;;;5008107;28;20344;-69
2023/01/29 08:00:55;;;;;;;;;;;0.60;97.70;;;;;;5008357;28;19914;-68
2023/01/29 08:03:21;;;;;;;;;;;0.60;97.70;;;;;;5007944;28;19928;-68
2023/01/29 08:05:46;;;;;;;;;;;0.60;97.70;;;;;;5008064;28;20371;-68
2023/01/29 08:08:12;;;;;;;;;;;0.60;97.70;;;;;;5008779;28;19952;-68
2023/01/29 08:10:38;;;;;;;;;;;0.60;97.70;;;;;;5008325;28;20386;-68
2023/01/29 08:13:04;;;;;;;;;;;0.60;97.80;;;;;;5008186;28;20278;-68
2023/01/29 08:15:30;;;;;;;;;;;0.60;97.70;;;;;;5007826;28;19929;-69
2023/01/29 08:17:55;;;;;;;;;;;0.60;97.70;;;;;;5008774;28;19913;-68
2023/01/29 08:20:21;;;;;;;;;;;0.60;97.70;;;;;;5007399;28;19917;-68
2023/01/29 08:22:47;;;;;;;;;;;0.60;97.70;;;;;;4988775;28;20627;-68
2023/01/29 08:25:12;;;;;;;;;;;0.60;97.80;;;;;;4997244;28;20002;-68
2023/01/29 08:27:38;;;;;;;;;;;0.70;97.80;;;;;;5008134;28;19916;-68
2023/01/29 08:30:04;;;;;;;;;;;0.70;97.80;;;;;;5007415;28;20041;-69
2023/01/29 08:32:30;;;;;;;;;;;0.70;97.80;;;;;;5007973;28;19921;-68
2023/01/29 08:34:56;;;;;;;;;;;0.70;97.80;;;;;;5008069;28;19914;-68
2023/01/29 08:37:21;;;;;;;;;;;0.70;97.80;;;;;;5008160;28;19913;-69
2023/01/29 08:39:47;;;;;;;;;;;0.70;97.80;;;;;;5007430;28;20359;-68
2023/01/29 08:42:12;;;;;;;;;;;0.70;97.70;;;;;;5003657;28;19999;-68
2023/01/29 08:44:38;;;;;;;;;;;0.70;97.90;;;;;;5007330;28;20371;-68
2023/01/29 08:47:03;;;;;;;;;;;0.70;97.80;;;;;;5008089;28;19913;-68
2023/01/29 08:49:29;;;;;;;;;;;0.70;97.70;;;;;;4989203;28;19928;-68
2023/01/29 08:51:55;;;;;;;;;;;0.80;97.70;;;;;;5002126;28;19914;-68
2023/01/29 08:54:22;;;;;;;;;;;0.80;97.80;;;;;;5007356;28;19921;-68
2023/01/29 08:56:47;;;;;;;;;;;0.80;97.80;;;;;;5007599;28;19918;-68
2023/01/29 08:59:13;;;;;;;;;;;0.80;97.80;;;;;;5007707;28;19991;-68
2023/01/29 09:01:38;;;;;;;;;;;0.80;97.80;;;;;;5007480;28;19917;-68
2023/01/29 09:04:04;;;;;;;;;;;0.80;97.80;;;;;;4986150;28;20393;-69
2023/01/29 09:06:29;;;;;;;;;;;0.80;97.80;;;;;;4987782;28;19960;-68
2023/01/29 09:08:55;;;;;;;;;;;0.80;97.80;;;;;;5001200;28;19923;-68
2023/01/29 09:11:20;;;;;;;;;;;0.90;97.70;;;;;;5005225;28;19921;-68
2023/01/29 09:13:46;;;;;;;;;;;0.90;98.00;;;;;;5006634;28;19917;-69
2023/01/29 09:16:11;;;;;;;;;;;0.90;97.80;;;;;;5005774;28;19917;-69
2023/01/29 09:18:37;;;;;;;;;;;0.90;97.70;;;;;;5007233;28;19917;-68
2023/01/29 09:21:03;;;;;;;;;;;0.90;97.70;;;;;;5006925;28;19910;-66
2023/01/29 09:23:29;;;;;;;;;;;0.90;97.70;;;;;;5007357;28;20031;-66
2023/01/29 09:25:55;;;;;;;;;;;0.90;97.70;;;;;;5007064;28;19913;-66
2023/01/29 09:28:20;;;;;;;;;;;1.00;97.70;;;;;;5007411;28;19913;-66
2023/01/29 09:30:46;;;;;;;;;;;1.00;97.70;;;;;;5007031;28;19913;-66
2023/01/29 09:33:11;;;;;;;;;;;1.00;97.70;;;;;;4996930;28;19916;-66
2023/01/29 09:35:39;;;;;;;;;;;1.00;97.70;;;;;;4998164;28;20001;-66
2023/01/29 09:38:05;;;;;;;;;;;1.10;97.70;;;;;;4997052;28;20011;-66
2023/01/29 09:40:45;;;;;;;;;;;1.10;97.60;;;;;;5001881;28;20000;-66
2023/01/29 09:43:17;;;;;;;;;;;1.10;97.70;;;;;;5002937;28;19943;-66
2023/01/29 09:45:48;;;;;;;;;;;1.10;97.60;;;;;;5003673;28;19909;-66
2023/01/29 09:48:14;;;;;;;;;;;1.20;97.70;;;;;;5006829;28;20595;-66
2023/01/29 09:50:41;;;;;;;;;;;1.10;97.60;;;;;;5006625;28;19913;-66
2023/01/29 09:53:22;;;;;;;;;;;1.20;97.70;;;;;;5006610;28;19956;-66
2023/01/29 09:55:50;;;;;;;;;;;1.20;97.70;;;;;;5002624;28;19921;-66
2023/01/29 09:58:15;;;;;;;;;;;1.20;97.60;;;;;;5006032;28;20005;-68
2023/01/29 10:00:52;;;;;;;;;;;1.20;97.60;;;;;;5021880;28;20535;-68
2023/01/29 10:03:37;;;;;;;;;;;1.20;97.60;;;;;;5005602;28;19995;-68
2023/01/29 10:06:08;;;;;;;;;;;1.20;97.70;;;;;;4994078;28;19914;-68
2023/01/29 10:09:01;;;;;;;;;;;1.20;97.70;;;;;;4996024;28;19952;-68
2023/01/29 10:11:49;;;;;;;;;;;1.20;97.70;;;;;;5006489;28;19918;-68
2023/01/29 10:14:15;;;;;;;;;;;1.30;97.80;;;;;;5006481;28;19909;-68
2023/01/29 10:16:40;;;;;;;;;;;1.20;97.80;;;;;;5006622;28;19925;-68
2023/01/29 10:19:25;;;;;;;;;;;1.30;97.80;;;;;;5006159;28;19924;-68
2023/01/29 10:21:56;;;;;;;;;;;1.30;97.80;;;;;;5006646;28;19910;-68
2023/01/29 10:24:21;;;;;;;;;;;1.30;97.70;;;;;;5006228;28;19960;-68
2023/01/29 10:26:47;;;;;;;;;;;1.30;97.70;;;;;;5006774;28;19925;-69
2023/01/29 10:29:17;;;;;;;;;;;1.30;97.70;;;;;;5001771;28;19925;-68
2023/01/29 10:31:43;;;;;;;;;;;1.30;97.70;;;;;;4991069;28;19913;-68
2023/01/29 10:34:08;;;;;;;;;;;1.40;97.70;;;;;;5003831;28;19924;-68
2023/01/29 10:36:41;;;;;;;;;;;1.40;97.70;;;;;;4993008;28;20298;-68
2023/01/29 10:39:13;;;;;;;;;;;1.40;97.70;;;;;;5000069;28;20375;-68
2023/01/29 10:41:39;;;;;;;;;;;1.40;97.70;;;;;;4996770;28;20630;-68
2023/01/29 10:44:04;;;;;;;;;;;1.40;97.60;;;;;;4996980;28;19996;-68
2023/01/29 10:46:45;;;;;;;;;;;1.40;97.70;;;;;;4995301;28;19913;-68
2023/01/29 10:49:16;;;;;;;;;;;1.50;97.60;;;;;;5000967;28;20362;-68
2023/01/29 10:52:00;;;;;;;;;;;1.50;97.60;;;;;;4997407;28;19949;-68
2023/01/29 10:54:39;;;;;;;;;;;1.50;97.60;;;;;;5000231;28;19913;-68
2023/01/29 10:57:12;;;;;;;;;;;1.60;97.60;;;;;;4998157;28;19921;-68
2023/01/29 10:59:43;;;;;;;;;;;1.60;97.60;;;;;;4997656;28;19913;-69
2023/01/29 11:02:17;;;;;;;;;;;1.60;97.50;;;;;;5000600;28;19940;-68
2023/01/29 11:04:42;;;;;;;;;;;1.60;97.50;;;;;;4994846;28;19910;-68
2023/01/29 11:07:08;;;;;;;;;;;1.70;97.50;;;;;;4989750;28;19916;-68
2023/01/29 11:09:36;;;;;;;;;;;1.70;97.50;;;;;;4998854;28;20024;-68
2023/01/29 11:12:03;;;;;;;;;;;1.70;97.50;;;;;;4999726;28;20417;-68
2023/01/29 11:14:32;;;;;;;;;;;1.80;97.60;;;;;;4997882;28;19913;-69
2023/01/29 11:16:57;;;;;;;;;;;1.80;97.50;;;;;;5001524;28;19918;-68
2023/01/29 11:19:43;;;;;;;;;;;1.80;97.50;;;;;;5000423;28;19921;-68
2023/01/29 11:22:11;;;;;;;;;;;1.80;97.50;;;;;;5002402;28;19965;-68
2023/01/29 11:24:37;;;;;;;;;;;1.80;97.50;;;;;;4998242;28;20363;-68
2023/01/29 11:27:12;;;;;;;;;;;1.80;97.50;;;;;;4998205;28;19920;-68
2023/01/29 11:29:42;;;;;;;;;;;1.90;97.50;;;;;;4999008;28;19993;-68
2023/01/29 11:32:23;;;;;;;;;;;1.90;97.50;;;;;;5000250;28;19916;-68
2023/01/29 11:34:56;;;;;;;;;;;1.90;97.50;;;;;;5000304;28;19922;-68
2023/01/29 11:37:21;;;;;;;;;;;1.90;97.50;;;;;;4999167;28;19917;-68
2023/01/29 11:39:47;;;;;;;;;;;1.90;97.50;;;;;;4997709;28;19924;-68
2023/01/29 11:42:19;;;;;;;;;;;1.90;97.50;;;;;;5000488;28;20451;-68
2023/01/29 11:44:45;;;;;;;;;;;2.00;97.50;;;;;;5006301;28;19961;-68
2023/01/29 11:47:13;;;;;;;;;;;2.00;97.50;;;;;;5008963;28;19922;-69
2023/01/29 11:49:43;;;;;;;;;;;2.00;97.50;;;;;;5008579;28;19909;-69
2023/01/29 11:52:09;;;;;;;;;;;2.00;97.50;;;;;;5008722;28;19983;-68
2023/01/29 11:54:37;;;;;;;;;;;2.00;97.50;;;;;;4998937;28;20350;-68
2023/01/29 11:57:03;;;;;;;;;;;2.00;97.50;;;;;;4999031;28;19913;-68
2023/01/29 11:59:36;;;;;;;;;;;2.00;97.50;;;;;;4996471;28;19917;-68
2023/01/29 12:02:13;;;;;;;;;;;2.00;97.50;;;;;;5005454;28;20012;-68
2023/01/29 12:04:39;;;;;;;;;;;2.00;97.50;;;;;;5003702;28;19918;-68
2023/01/29 12:07:10;;;;;;;;;;;2.00;97.50;;;;;;4989244;28;19971;-68
2023/01/29 12:09:35;;;;;;;;;;;2.10;97.60;;;;;;4988381;28;20296;-68
2023/01/29 12:12:25;;;;;;;;;;;2.10;97.60;;;;;;4989099;28;19944;-68
2023/01/29 12:15:01;;;;;;;;;;;2.10;97.60;;;;;;4991055;28;19921;-69
2023/01/29 12:17:29;;;;;;;;;;;2.10;97.60;;;;;;5008470;28;19974;-68
2023/01/29 12:19:59;;;;;;;;;;;2.10;97.50;;;;;;4999879;28;19918;-68
2023/01/29 12:22:37;;;;;;;;;;;2.10;97.60;;;;;;4995405;28;19913;-68
2023/01/29 12:25:08;;;;;;;;;;;2.10;97.60;;;;;;5001276;28;20004;-68
2023/01/29 12:27:36;;;;;;;;;;;2.10;97.60;;;;;;4997360;28;19913;-68
2023/01/29 12:30:10;;;;;;;;;;;2.20;97.60;;;;;;4997434;28;19941;-69
2023/01/29 12:32:42;;;;;;;;;;;2.20;97.60;;;;;;5001767;28;19972;-68
2023/01/29 12:35:17;;;;;;;;;;;2.20;97.60;;;;;;4998759;28;20367;-68
2023/01/29 12:37:58;;;;;;;;;;;2.20;97.50;;;;;;4998006;28;19949;-68
2023/01/29 12:40:28;;;;;;;;;;;2.20;97.50;;;;;;5000768;28;19920;-68
2023/01/29 12:42:56;;;;;;;;;;;2.20;97.60;;;;;;5005176;28;19914;-68
2023/01/29 12:45:22;;;;;;;;;;;2.20;97.50;;;;;;4996860;28;19921;-68
2023/01/29 12:47:48;;;;;;;;;;;2.30;97.50;;;;;;5014674;28;19925;-69
2023/01/29 12:50:14;;;;;;;;;;;2.20;97.50;;;;;;4997778;28;20703;-68
2023/01/29 12:52:39;;;;;;;;;;;2.30;97.50;;;;;;4995027;28;19914;-69
2023/01/29 12:55:09;;;;;;;;;;;2.30;97.50;;;;;;4999089;28;20520;-68
2023/01/29 12:57:40;;;;;;;;;;;2.30;97.50;;;;;;4998169;28;19913;-68
2023/01/29 13:00:12;;;;;;;;;;;2.30;97.50;;;;;;4996034;28;19918;-68
2023/01/29 13:02:59;;;;;;;;;;;2.30;97.50;;;;;;4996647;28;20001;-69
2023/01/29 13:05:27;;;;;;;;;;;2.30;97.50;;;;;;4994663;28;19949;-68
2023/01/29 13:08:00;;;;;;;;;;;2.30;97.60;;;;;;4992665;28;19910;-68
2023/01/29 13:10:31;;;;;;;;;;;2.30;97.50;;;;;;5003585;28;20008;-68
2023/01/29 13:13:00;;;;;;;;;;;2.30;97.50;;;;;;4996504;28;19913;-68
2023/01/29 13:15:31;;;;;;;;;;;2.30;97.60;;;;;;4995359;28;19917;-68
2023/01/29 13:18:15;;;;;;;;;;;2.30;97.50;;;;;;5000275;28;19963;-68
2023/01/29 13:20:42;;;;;;;;;;;2.30;97.60;;;;;;5005528;28;19917;-68
2023/01/29 13:23:16;;;;;;;;;;;2.30;97.60;;;;;;5007091;28;19920;-68
2023/01/29 13:25:42;;;;;;;;;;;2.30;97.50;;;;;;5004664;28;19991;-68
2023/01/29 13:28:15;;;;;;;;;;;2.40;97.60;;;;;;5006861;28;19919;-68
2023/01/29 13:30:41;;;;;;;;;;;2.30;97.50;;;;;;5006357;28;20115;-68
2023/01/29 13:33:09;;;;;;;;;;;2.30;97.60;;;;;;4993941;28;20004;-66
2023/01/29 13:35:36;;;;;;;;;;;2.30;97.60;;;;;;4987629;28;19921;-65
2023/01/29 13:38:02;;;;;;;;;;;2.40;97.60;;;;;;5006187;28;19957;-66
2023/01/29 13:40:30;;;;;;;;;;;2.30;97.60;;;;;;5006835;28;19928;-66
2023/01/29 13:42:56;;;;;;;;;;;2.40;97.60;;;;;;5006736;28;19914;-66
2023/01/29 13:45:23;;;;;;;;;;;2.30;97.60;;;;;;5007152;28;19920;-66
2023/01/29 13:47:49;;;;;;;;;;;2.40;97.70;;;;;;5006896;28;19913;-66
2023/01/29 13:50:18;;;;;;;;;;;2.40;97.60;;;;;;5006691;28;20511;-66
2023/01/29 13:52:45;;;;;;;;;;;2.30;97.70;;;;;;5006323;28;19983;-66
2023/01/29 13:55:10;;;;;;;;;;;2.30;97.60;;;;;;5006812;28;19910;-66
2023/01/29 13:57:35;;;;;;;;;;;2.40;97.60;;;;;;5007064;28;19913;-66
2023/01/29 14:00:01;;;;;;;;;;;2.40;97.60;;;;;;5006259;28;19963;-66
2023/01/29 14:02:28;;;;;;;;;;;2.40;97.70;;;;;;5006878;28;19963;-66
2023/01/29 14:05:12;;;;;;;;;;;2.40;97.70;;;;;;5005854;28;20651;-66
2023/01/29 14:07:37;;;;;;;;;;;2.40;97.70;;;;;;5004560;28;19991;-66
2023/01/29 14:10:19;;;;;;;;;;;2.30;97.60;;;;;;5004703;28;19921;-66
2023/01/29 14:12:45;;;;;;;;;;;2.30;97.60;;;;;;4993985;28;19925;-66
2023/01/29 14:15:15;;;;;;;;;;;2.40;97.60;;;;;;4976268;28;19948;-66
2023/01/29 14:17:53;;;;;;;;;;;2.30;97.60;;;;;;4996758;28;19917;-66
2023/01/29 14:20:19;;;;;;;;;;;2.30;97.60;;;;;;4995332;28;19914;-66
2023/01/29 14:22:53;;;;;;;;;;;2.30;97.70;;;;;;4996449;28;19949;-66
2023/01/29 14:25:20;;;;;;;;;;;2.30;97.70;;;;;;5003846;28;19932;-66
2023/01/29 14:27:46;;;;;;;;;;;2.30;97.60;;;;;;5003593;28;19920;-66
2023/01/29 14:30:13;;;;;;;;;;;2.30;97.60;;;;;;4997358;28;19918;-66
2023/01/29 14:32:39;;;;;;;;;;;2.30;97.70;;;;;;5002608;28;19925;-66
2023/01/29 14:35:18;;;;;;;;;;;2.30;97.70;;;;;;5002975;28;19928;-66
2023/01/29 14:37:48;;;;;;;;;;;2.30;97.70;;;;;;5006874;28;20766;-66
2023/01/29 14:40:16;;;;;;;;;;;2.30;97.60;;;;;;5006173;28;19921;-65
2023/01/29 14:42:51;;;;;;;;;;;2.30;97.60;;;;;;5008795;28;19917;-66
2023/01/29 14:45:27;;;;;;;;;;;2.30;97.70;;;;;;5009092;28;19977;-66
2023/01/29 14:47:56;;;;;;;;;;;2.30;97.80;;;;;;5008804;28;19961;-66
2023/01/29 14:50:27;;;;;;;;;;;2.30;97.70;;;;;;5004194;28;19925;-66
2023/01/29 14:52:53;;;;;;;;;;;2.30;97.70;;;;;;5000107;28;19914;-66
2023/01/29 14:55:45;;;;;;;;;;;2.30;97.70;;;;;;4986125;28;19948;-66
2023/01/29 14:58:15;;;;;;;;;;;2.30;97.70;;;;;;5000205;28;19921;-66
2023/01/29 15:00:43;;;;;;;;;;;2.30;97.80;;;;;;4998507;28;20178;-66
2023/01/29 15:03:19;;;;;;;;;;;2.30;97.80;;;;;;4997941;28;20535;-66
2023/01/29 15:05:45;;;;;;;;;;;2.30;97.80;;;;;;5001729;28;20278;-66
2023/01/29 15:08:14;;;;;;;;;;;2.30;97.80;;;;;;4998216;28;19952;-66